sensor_id;sensor_type;location;lat;lon;timestamp;P1;durP1;ratioP1;P2;durP2;ratioP2
8139;SDS011;4111;50.972;7.072;2022-12-19T00:01:28;31.97;;;20.03;;
8139;SDS011;4111;50.972;7.072;2022-12-19T00:03:58;33.57;;;20.47;;
8139;SDS011;4111;50.972;7.072;2022-12-19T00:06:26;36.07;;;20.83;;
8139;SDS011;4111;50.972;7.072;2022-12-19T00:08:54;31.37;;;20.13;;
8139;SDS011;4111;50.972;7.072;2022-12-19T00:11:22;31.57;;;20.23;;
8139;SDS011;4111;50.972;7.072;2022-12-19T00:13:50;33.00;;;20.20;;
8139;SDS011;4111;50.972;7.072;2022-12-19T00:16:18;35.30;;;21.00;;
8139;SDS011;4111;50.972;7.072;2022-12-19T00:18:46;32.60;;;19.80;;
8139;SDS011;4111;50.972;7.072;2022-12-19T00:21:15;35.17;;;20.70;;
8139;SDS011;4111;50.972;7.072;2022-12-19T00:23:44;32.90;;;20.57;;
8139;SDS011;4111;50.972;7.072;2022-12-19T00:28:43;32.53;;;20.87;;
8139;SDS011;4111;50.972;7.072;2022-12-19T00:31:11;36.77;;;21.00;;
8139;SDS011;4111;50.972;7.072;2022-12-19T00:33:38;32.20;;;21.13;;
8139;SDS011;4111;50.972;7.072;2022-12-19T00:36:12;35.37;;;21.67;;
8139;SDS011;4111;50.972;7.072;2022-12-19T00:38:47;34.03;;;20.97;;
8139;SDS011;4111;50.972;7.072;2022-12-19T00:41:19;31.10;;;19.57;;
8139;SDS011;4111;50.972;7.072;2022-12-19T00:43:54;38.33;;;21.20;;
8139;SDS011;4111;50.972;7.072;2022-12-19T00:46:22;34.87;;;21.40;;
8139;SDS011;4111;50.972;7.072;2022-12-19T00:48:48;32.77;;;20.17;;
8139;SDS011;4111;50.972;7.072;2022-12-19T00:51:16;34.33;;;20.77;;
8139;SDS011;4111;50.972;7.072;2022-12-19T00:53:44;33.43;;;20.37;;
8139;SDS011;4111;50.972;7.072;2022-12-19T00:56:17;33.10;;;20.27;;
8139;SDS011;4111;50.972;7.072;2022-12-19T00:58:45;32.97;;;20.57;;
8139;SDS011;4111;50.972;7.072;2022-12-19T01:01:17;32.27;;;20.07;;
8139;SDS011;4111;50.972;7.072;2022-12-19T01:03:46;34.90;;;20.73;;
8139;SDS011;4111;50.972;7.072;2022-12-19T01:06:32;31.77;;;19.30;;
8139;SDS011;4111;50.972;7.072;2022-12-19T01:08:59;31.47;;;19.10;;
8139;SDS011;4111;50.972;7.072;2022-12-19T01:11:26;33.13;;;19.93;;
8139;SDS011;4111;50.972;7.072;2022-12-19T01:14:11;32.47;;;19.30;;
8139;SDS011;4111;50.972;7.072;2022-12-19T01:16:47;34.13;;;20.80;;
8139;SDS011;4111;50.972;7.072;2022-12-19T01:19:14;34.47;;;20.53;;
8139;SDS011;4111;50.972;7.072;2022-12-19T01:21:40;30.97;;;19.77;;
8139;SDS011;4111;50.972;7.072;2022-12-19T01:24:08;33.23;;;20.43;;
8139;SDS011;4111;50.972;7.072;2022-12-19T01:26:34;32.37;;;20.40;;
8139;SDS011;4111;50.972;7.072;2022-12-19T01:29:01;31.13;;;21.00;;
8139;SDS011;4111;50.972;7.072;2022-12-19T01:31:27;36.07;;;21.00;;
8139;SDS011;4111;50.972;7.072;2022-12-19T01:33:53;35.37;;;21.47;;
8139;SDS011;4111;50.972;7.072;2022-12-19T01:36:20;35.07;;;20.93;;
8139;SDS011;4111;50.972;7.072;2022-12-19T01:38:46;36.27;;;21.13;;
8139;SDS011;4111;50.972;7.072;2022-12-19T01:41:13;31.80;;;19.43;;
8139;SDS011;4111;50.972;7.072;2022-12-19T01:43:59;31.90;;;20.23;;
8139;SDS011;4111;50.972;7.072;2022-12-19T01:46:34;31.37;;;20.03;;
8139;SDS011;4111;50.972;7.072;2022-12-19T01:49:03;34.50;;;20.57;;
8139;SDS011;4111;50.972;7.072;2022-12-19T01:51:38;39.50;;;22.43;;
8139;SDS011;4111;50.972;7.072;2022-12-19T01:54:09;37.33;;;21.53;;
8139;SDS011;4111;50.972;7.072;2022-12-19T01:56:40;33.80;;;20.37;;
8139;SDS011;4111;50.972;7.072;2022-12-19T01:59:15;33.23;;;20.67;;
8139;SDS011;4111;50.972;7.072;2022-12-19T02:01:53;33.13;;;20.03;;
8139;SDS011;4111;50.972;7.072;2022-12-19T02:04:25;33.80;;;19.87;;
8139;SDS011;4111;50.972;7.072;2022-12-19T02:06:57;31.93;;;19.60;;
8139;SDS011;4111;50.972;7.072;2022-12-19T02:09:42;33.90;;;18.67;;
8139;SDS011;4111;50.972;7.072;2022-12-19T02:12:10;27.97;;;19.03;;
8139;SDS011;4111;50.972;7.072;2022-12-19T02:14:36;28.47;;;17.93;;
8139;SDS011;4111;50.972;7.072;2022-12-19T02:17:10;35.23;;;19.63;;
8139;SDS011;4111;50.972;7.072;2022-12-19T02:30:49;28.80;;;18.97;;
8139;SDS011;4111;50.972;7.072;2022-12-19T02:33:41;32.20;;;19.37;;
8139;SDS011;4111;50.972;7.072;2022-12-19T02:36:16;28.33;;;17.60;;
8139;SDS011;4111;50.972;7.072;2022-12-19T02:38:48;30.20;;;19.73;;
8139;SDS011;4111;50.972;7.072;2022-12-19T02:41:28;29.73;;;18.03;;
8139;SDS011;4111;50.972;7.072;2022-12-19T02:44:09;31.07;;;18.77;;
8139;SDS011;4111;50.972;7.072;2022-12-19T02:46:41;31.43;;;19.63;;
8139;SDS011;4111;50.972;7.072;2022-12-19T02:49:10;32.77;;;19.20;;
8139;SDS011;4111;50.972;7.072;2022-12-19T02:51:41;29.70;;;18.53;;
8139;SDS011;4111;50.972;7.072;2022-12-19T02:54:08;32.97;;;18.73;;
8139;SDS011;4111;50.972;7.072;2022-12-19T02:56:44;29.13;;;19.33;;
8139;SDS011;4111;50.972;7.072;2022-12-19T02:59:32;29.63;;;17.73;;
8139;SDS011;4111;50.972;7.072;2022-12-19T03:05:30;29.17;;;18.23;;
8139;SDS011;4111;50.972;7.072;2022-12-19T03:13:25;29.80;;;19.13;;
8139;SDS011;4111;50.972;7.072;2022-12-19T03:15:58;28.87;;;18.60;;
8139;SDS011;4111;50.972;7.072;2022-12-19T03:18:26;28.43;;;19.30;;
8139;SDS011;4111;50.972;7.072;2022-12-19T03:21:01;30.43;;;19.10;;
8139;SDS011;4111;50.972;7.072;2022-12-19T03:23:29;27.53;;;18.67;;
8139;SDS011;4111;50.972;7.072;2022-12-19T03:25:58;30.30;;;19.00;;
8139;SDS011;4111;50.972;7.072;2022-12-19T03:28:39;29.53;;;18.47;;
8139;SDS011;4111;50.972;7.072;2022-12-19T03:31:10;31.17;;;18.47;;
8139;SDS011;4111;50.972;7.072;2022-12-19T03:33:39;29.63;;;16.97;;
8139;SDS011;4111;50.972;7.072;2022-12-19T03:36:09;29.33;;;18.70;;
8139;SDS011;4111;50.972;7.072;2022-12-19T03:38:39;32.33;;;20.23;;
8139;SDS011;4111;50.972;7.072;2022-12-19T03:41:09;28.93;;;19.37;;
8139;SDS011;4111;50.972;7.072;2022-12-19T03:43:37;30.57;;;19.57;;
8139;SDS011;4111;50.972;7.072;2022-12-19T03:46:10;32.10;;;19.30;;
8139;SDS011;4111;50.972;7.072;2022-12-19T03:48:44;35.80;;;19.00;;
8139;SDS011;4111;50.972;7.072;2022-12-19T03:54:19;34.27;;;20.53;;
8139;SDS011;4111;50.972;7.072;2022-12-19T04:02:01;37.60;;;21.23;;
8139;SDS011;4111;50.972;7.072;2022-12-19T04:04:29;36.00;;;20.60;;
8139;SDS011;4111;50.972;7.072;2022-12-19T04:07:00;34.47;;;21.27;;
8139;SDS011;4111;50.972;7.072;2022-12-19T04:09:29;33.50;;;20.13;;
8139;SDS011;4111;50.972;7.072;2022-12-19T04:12:01;30.37;;;19.70;;
8139;SDS011;4111;50.972;7.072;2022-12-19T04:14:30;29.00;;;18.57;;
8139;SDS011;4111;50.972;7.072;2022-12-19T04:17:09;36.40;;;22.53;;
8139;SDS011;4111;50.972;7.072;2022-12-19T04:25:23;32.73;;;19.93;;
8139;SDS011;4111;50.972;7.072;2022-12-19T04:27:56;31.73;;;18.40;;
8139;SDS011;4111;50.972;7.072;2022-12-19T04:30:26;37.47;;;20.73;;
8139;SDS011;4111;50.972;7.072;2022-12-19T04:32:53;35.73;;;20.43;;
8139;SDS011;4111;50.972;7.072;2022-12-19T04:35:21;34.00;;;19.73;;
8139;SDS011;4111;50.972;7.072;2022-12-19T04:37:47;34.30;;;20.57;;
8139;SDS011;4111;50.972;7.072;2022-12-19T04:40:14;31.57;;;19.97;;
8139;SDS011;4111;50.972;7.072;2022-12-19T04:42:40;37.50;;;22.60;;
8139;SDS011;4111;50.972;7.072;2022-12-19T04:45:07;31.97;;;20.40;;
8139;SDS011;4111;50.972;7.072;2022-12-19T04:47:34;32.50;;;19.47;;
8139;SDS011;4111;50.972;7.072;2022-12-19T04:50:01;37.17;;;22.37;;
8139;SDS011;4111;50.972;7.072;2022-12-19T04:52:27;33.57;;;22.03;;
8139;SDS011;4111;50.972;7.072;2022-12-19T04:54:53;39.57;;;23.03;;
8139;SDS011;4111;50.972;7.072;2022-12-19T04:57:20;36.83;;;20.57;;
8139;SDS011;4111;50.972;7.072;2022-12-19T04:59:47;33.33;;;21.17;;
8139;SDS011;4111;50.972;7.072;2022-12-19T05:02:13;35.97;;;22.10;;
8139;SDS011;4111;50.972;7.072;2022-12-19T05:04:40;39.57;;;20.67;;
8139;SDS011;4111;50.972;7.072;2022-12-19T05:07:06;39.87;;;22.77;;
8139;SDS011;4111;50.972;7.072;2022-12-19T05:09:32;41.17;;;22.20;;
8139;SDS011;4111;50.972;7.072;2022-12-19T05:11:59;38.80;;;22.37;;
8139;SDS011;4111;50.972;7.072;2022-12-19T05:14:26;38.50;;;22.37;;
8139;SDS011;4111;50.972;7.072;2022-12-19T05:16:52;35.37;;;20.87;;
8139;SDS011;4111;50.972;7.072;2022-12-19T05:19:26;38.97;;;22.50;;
8139;SDS011;4111;50.972;7.072;2022-12-19T05:21:53;38.97;;;22.57;;
8139;SDS011;4111;50.972;7.072;2022-12-19T05:24:19;36.70;;;21.30;;
8139;SDS011;4111;50.972;7.072;2022-12-19T05:26:46;40.90;;;22.47;;
8139;SDS011;4111;50.972;7.072;2022-12-19T05:29:14;44.70;;;24.50;;
8139;SDS011;4111;50.972;7.072;2022-12-19T05:31:42;40.13;;;22.67;;
8139;SDS011;4111;50.972;7.072;2022-12-19T05:34:08;40.80;;;23.57;;
8139;SDS011;4111;50.972;7.072;2022-12-19T05:36:35;42.43;;;23.20;;
8139;SDS011;4111;50.972;7.072;2022-12-19T05:39:01;38.30;;;22.60;;
8139;SDS011;4111;50.972;7.072;2022-12-19T05:41:28;43.00;;;23.27;;
8139;SDS011;4111;50.972;7.072;2022-12-19T05:43:54;41.40;;;23.30;;
8139;SDS011;4111;50.972;7.072;2022-12-19T05:46:21;44.63;;;23.20;;
8139;SDS011;4111;50.972;7.072;2022-12-19T05:48:49;37.00;;;21.33;;
8139;SDS011;4111;50.972;7.072;2022-12-19T05:51:16;39.00;;;21.57;;
8139;SDS011;4111;50.972;7.072;2022-12-19T05:53:42;39.47;;;23.80;;
8139;SDS011;4111;50.972;7.072;2022-12-19T05:56:11;36.80;;;22.40;;
8139;SDS011;4111;50.972;7.072;2022-12-19T05:58:42;36.27;;;21.53;;
8139;SDS011;4111;50.972;7.072;2022-12-19T06:01:20;35.60;;;22.17;;
8139;SDS011;4111;50.972;7.072;2022-12-19T06:03:48;39.40;;;21.47;;
8139;SDS011;4111;50.972;7.072;2022-12-19T06:06:17;35.00;;;20.90;;
8139;SDS011;4111;50.972;7.072;2022-12-19T06:08:45;35.93;;;21.30;;
8139;SDS011;4111;50.972;7.072;2022-12-19T06:11:12;34.83;;;21.47;;
8139;SDS011;4111;50.972;7.072;2022-12-19T06:13:40;36.23;;;21.10;;
8139;SDS011;4111;50.972;7.072;2022-12-19T06:16:10;34.23;;;20.37;;
8139;SDS011;4111;50.972;7.072;2022-12-19T06:18:40;34.53;;;20.83;;
8139;SDS011;4111;50.972;7.072;2022-12-19T06:21:18;34.10;;;20.50;;
8139;SDS011;4111;50.972;7.072;2022-12-19T06:23:46;34.60;;;20.23;;
8139;SDS011;4111;50.972;7.072;2022-12-19T06:26:13;35.00;;;20.83;;
8139;SDS011;4111;50.972;7.072;2022-12-19T06:28:45;36.10;;;21.47;;
8139;SDS011;4111;50.972;7.072;2022-12-19T06:31:13;32.00;;;20.87;;
8139;SDS011;4111;50.972;7.072;2022-12-19T06:33:40;33.33;;;21.20;;
8139;SDS011;4111;50.972;7.072;2022-12-19T06:36:11;32.40;;;20.97;;
8139;SDS011;4111;50.972;7.072;2022-12-19T06:38:41;36.30;;;20.60;;
8139;SDS011;4111;50.972;7.072;2022-12-19T06:41:08;37.70;;;22.67;;
8139;SDS011;4111;50.972;7.072;2022-12-19T06:44:00;38.77;;;22.17;;
8139;SDS011;4111;50.972;7.072;2022-12-19T06:46:28;41.40;;;22.00;;
8139;SDS011;4111;50.972;7.072;2022-12-19T06:48:55;28.27;;;17.77;;
8139;SDS011;4111;50.972;7.072;2022-12-19T06:51:22;40.03;;;21.40;;
8139;SDS011;4111;50.972;7.072;2022-12-19T06:53:48;37.37;;;22.07;;
8139;SDS011;4111;50.972;7.072;2022-12-19T06:56:16;36.67;;;20.90;;
8139;SDS011;4111;50.972;7.072;2022-12-19T06:58:43;33.90;;;20.23;;
8139;SDS011;4111;50.972;7.072;2022-12-19T07:01:23;32.83;;;20.07;;
8139;SDS011;4111;50.972;7.072;2022-12-19T07:03:57;37.17;;;21.13;;
8139;SDS011;4111;50.972;7.072;2022-12-19T07:06:24;34.03;;;20.03;;
8139;SDS011;4111;50.972;7.072;2022-12-19T07:08:50;29.80;;;19.27;;
8139;SDS011;4111;50.972;7.072;2022-12-19T07:11:18;32.47;;;19.30;;
8139;SDS011;4111;50.972;7.072;2022-12-19T07:13:44;30.57;;;19.07;;
8139;SDS011;4111;50.972;7.072;2022-12-19T07:16:11;31.03;;;19.23;;
8139;SDS011;4111;50.972;7.072;2022-12-19T07:18:37;31.83;;;18.83;;
8139;SDS011;4111;50.972;7.072;2022-12-19T07:21:05;32.03;;;19.50;;
8139;SDS011;4111;50.972;7.072;2022-12-19T07:23:36;29.03;;;17.93;;
8139;SDS011;4111;50.972;7.072;2022-12-19T07:26:03;35.47;;;19.37;;
8139;SDS011;4111;50.972;7.072;2022-12-19T07:28:30;35.13;;;20.60;;
8139;SDS011;4111;50.972;7.072;2022-12-19T07:30:58;34.70;;;21.07;;
8139;SDS011;4111;50.972;7.072;2022-12-19T07:33:25;29.90;;;20.20;;
8139;SDS011;4111;50.972;7.072;2022-12-19T07:35:51;33.47;;;19.97;;
8139;SDS011;4111;50.972;7.072;2022-12-19T07:38:18;29.20;;;19.20;;
8139;SDS011;4111;50.972;7.072;2022-12-19T07:40:44;30.13;;;19.43;;
8139;SDS011;4111;50.972;7.072;2022-12-19T07:43:11;36.47;;;20.30;;
8139;SDS011;4111;50.972;7.072;2022-12-19T07:45:37;37.73;;;21.70;;
8139;SDS011;4111;50.972;7.072;2022-12-19T07:48:04;29.57;;;19.50;;
8139;SDS011;4111;50.972;7.072;2022-12-19T07:50:32;34.07;;;20.10;;
8139;SDS011;4111;50.972;7.072;2022-12-19T07:52:58;28.67;;;17.80;;
8139;SDS011;4111;50.972;7.072;2022-12-19T07:55:25;32.37;;;19.37;;
8139;SDS011;4111;50.972;7.072;2022-12-19T07:57:52;32.00;;;20.27;;
8139;SDS011;4111;50.972;7.072;2022-12-19T08:00:20;32.23;;;19.53;;
8139;SDS011;4111;50.972;7.072;2022-12-19T08:02:47;34.17;;;20.00;;
8139;SDS011;4111;50.972;7.072;2022-12-19T08:05:14;30.90;;;19.23;;
8139;SDS011;4111;50.972;7.072;2022-12-19T08:07:40;32.77;;;20.10;;
8139;SDS011;4111;50.972;7.072;2022-12-19T08:10:07;27.30;;;18.37;;
8139;SDS011;4111;50.972;7.072;2022-12-19T08:12:36;35.73;;;20.63;;
8139;SDS011;4111;50.972;7.072;2022-12-19T08:15:03;28.00;;;17.97;;
8139;SDS011;4111;50.972;7.072;2022-12-19T08:17:30;30.50;;;18.53;;
8139;SDS011;4111;50.972;7.072;2022-12-19T08:19:57;30.33;;;18.70;;
8139;SDS011;4111;50.972;7.072;2022-12-19T08:22:23;28.33;;;17.57;;
8139;SDS011;4111;50.972;7.072;2022-12-19T08:24:50;28.17;;;18.20;;
8139;SDS011;4111;50.972;7.072;2022-12-19T08:27:16;29.93;;;18.70;;
8139;SDS011;4111;50.972;7.072;2022-12-19T08:29:42;29.50;;;18.63;;
8139;SDS011;4111;50.972;7.072;2022-12-19T08:32:09;30.07;;;19.37;;
8139;SDS011;4111;50.972;7.072;2022-12-19T08:34:42;29.77;;;18.20;;
8139;SDS011;4111;50.972;7.072;2022-12-19T08:37:08;29.87;;;18.53;;
8139;SDS011;4111;50.972;7.072;2022-12-19T08:39:36;26.63;;;17.07;;
8139;SDS011;4111;50.972;7.072;2022-12-19T08:42:02;27.80;;;16.97;;
8139;SDS011;4111;50.972;7.072;2022-12-19T08:44:28;26.97;;;17.00;;
8139;SDS011;4111;50.972;7.072;2022-12-19T08:46:55;30.23;;;19.10;;
8139;SDS011;4111;50.972;7.072;2022-12-19T08:49:21;29.00;;;17.80;;
8139;SDS011;4111;50.972;7.072;2022-12-19T08:51:48;28.60;;;18.97;;
8139;SDS011;4111;50.972;7.072;2022-12-19T08:54:14;29.30;;;18.07;;
8139;SDS011;4111;50.972;7.072;2022-12-19T08:56:41;29.07;;;17.77;;
8139;SDS011;4111;50.972;7.072;2022-12-19T08:59:12;24.97;;;17.33;;
8139;SDS011;4111;50.972;7.072;2022-12-19T09:01:55;26.23;;;16.50;;
8139;SDS011;4111;50.972;7.072;2022-12-19T09:04:22;22.93;;;14.77;;
8139;SDS011;4111;50.972;7.072;2022-12-19T09:07:09;26.50;;;16.80;;
8139;SDS011;4111;50.972;7.072;2022-12-19T09:09:35;26.60;;;15.87;;
8139;SDS011;4111;50.972;7.072;2022-12-19T09:12:01;23.73;;;16.77;;
8139;SDS011;4111;50.972;7.072;2022-12-19T09:14:31;25.30;;;17.33;;
8139;SDS011;4111;50.972;7.072;2022-12-19T09:17:00;26.17;;;16.20;;
8139;SDS011;4111;50.972;7.072;2022-12-19T09:19:30;26.53;;;17.40;;
8139;SDS011;4111;50.972;7.072;2022-12-19T09:21:57;23.97;;;15.53;;
8139;SDS011;4111;50.972;7.072;2022-12-19T09:24:24;24.10;;;16.47;;
8139;SDS011;4111;50.972;7.072;2022-12-19T09:26:51;29.57;;;17.20;;
8139;SDS011;4111;50.972;7.072;2022-12-19T09:29:17;23.90;;;15.70;;
8139;SDS011;4111;50.972;7.072;2022-12-19T09:31:46;25.33;;;16.27;;
8139;SDS011;4111;50.972;7.072;2022-12-19T09:34:15;24.53;;;15.97;;
8139;SDS011;4111;50.972;7.072;2022-12-19T09:36:42;28.40;;;17.20;;
8139;SDS011;4111;50.972;7.072;2022-12-19T09:39:08;24.13;;;17.07;;
8139;SDS011;4111;50.972;7.072;2022-12-19T09:46:51;25.20;;;15.77;;
8139;SDS011;4111;50.972;7.072;2022-12-19T09:49:22;24.50;;;17.57;;
8139;SDS011;4111;50.972;7.072;2022-12-19T09:54:49;26.83;;;17.50;;
8139;SDS011;4111;50.972;7.072;2022-12-19T10:00:39;28.77;;;18.37;;
8139;SDS011;4111;50.972;7.072;2022-12-19T10:05:50;30.60;;;18.10;;
8139;SDS011;4111;50.972;7.072;2022-12-19T10:08:40;29.97;;;19.23;;
8139;SDS011;4111;50.972;7.072;2022-12-19T10:11:42;28.53;;;18.07;;
8139;SDS011;4111;50.972;7.072;2022-12-19T10:24:08;28.70;;;18.90;;
8139;SDS011;4111;50.972;7.072;2022-12-19T10:26:17;29.83;;;19.17;;
8139;SDS011;4111;50.972;7.072;2022-12-19T10:31:39;31.43;;;19.20;;
8139;SDS011;4111;50.972;7.072;2022-12-19T10:34:16;24.60;;;17.53;;
8139;SDS011;4111;50.972;7.072;2022-12-19T10:36:48;31.07;;;19.07;;
8139;SDS011;4111;50.972;7.072;2022-12-19T10:42:29;28.60;;;18.03;;
8139;SDS011;4111;50.972;7.072;2022-12-19T10:45:00;32.03;;;18.20;;
8139;SDS011;4111;50.972;7.072;2022-12-19T10:47:33;26.40;;;17.97;;
8139;SDS011;4111;50.972;7.072;2022-12-19T10:50:00;29.03;;;17.97;;
8139;SDS011;4111;50.972;7.072;2022-12-19T10:52:45;27.83;;;18.50;;
8139;SDS011;4111;50.972;7.072;2022-12-19T10:55:34;32.83;;;18.70;;
8139;SDS011;4111;50.972;7.072;2022-12-19T10:58:10;30.53;;;18.50;;
8139;SDS011;4111;50.972;7.072;2022-12-19T11:00:48;29.97;;;18.83;;
8139;SDS011;4111;50.972;7.072;2022-12-19T11:03:40;29.80;;;18.80;;
8139;SDS011;4111;50.972;7.072;2022-12-19T11:09:14;25.83;;;17.20;;
8139;SDS011;4111;50.972;7.072;2022-12-19T11:11:55;27.87;;;17.97;;
8139;SDS011;4111;50.972;7.072;2022-12-19T11:15:11;30.37;;;17.63;;
8139;SDS011;4111;50.972;7.072;2022-12-19T11:18:07;24.90;;;16.83;;
8139;SDS011;4111;50.972;7.072;2022-12-19T11:32:36;28.97;;;18.13;;
8139;SDS011;4111;50.972;7.072;2022-12-19T11:37:54;23.77;;;16.97;;
8139;SDS011;4111;50.972;7.072;2022-12-19T11:40:25;27.00;;;17.93;;
8139;SDS011;4111;50.972;7.072;2022-12-19T11:42:59;30.37;;;18.33;;
8139;SDS011;4111;50.972;7.072;2022-12-19T11:49:57;24.50;;;18.13;;
8139;SDS011;4111;50.972;7.072;2022-12-19T11:55:22;30.70;;;18.73;;
8139;SDS011;4111;50.972;7.072;2022-12-19T11:57:52;27.63;;;17.37;;
8139;SDS011;4111;50.972;7.072;2022-12-19T12:00:21;25.60;;;17.53;;
8139;SDS011;4111;50.972;7.072;2022-12-19T12:05:53;26.40;;;17.50;;
8139;SDS011;4111;50.972;7.072;2022-12-19T12:11:21;27.73;;;19.60;;
8139;SDS011;4111;50.972;7.072;2022-12-19T12:17:04;21.70;;;16.20;;
8139;SDS011;4111;50.972;7.072;2022-12-19T12:23:27;21.53;;;16.17;;
8139;SDS011;4111;50.972;7.072;2022-12-19T12:26:28;21.63;;;14.97;;
8139;SDS011;4111;50.972;7.072;2022-12-19T12:29:38;27.03;;;15.70;;
8139;SDS011;4111;50.972;7.072;2022-12-19T12:32:46;23.23;;;15.87;;
8139;SDS011;4111;50.972;7.072;2022-12-19T12:35:54;19.33;;;14.70;;
8139;SDS011;4111;50.972;7.072;2022-12-19T12:44:34;21.53;;;14.77;;
8139;SDS011;4111;50.972;7.072;2022-12-19T12:47:14;20.23;;;14.23;;
8139;SDS011;4111;50.972;7.072;2022-12-19T12:49:49;24.83;;;15.03;;
8139;SDS011;4111;50.972;7.072;2022-12-19T12:52:17;20.33;;;14.53;;
8139;SDS011;4111;50.972;7.072;2022-12-19T12:54:47;22.57;;;14.80;;
8139;SDS011;4111;50.972;7.072;2022-12-19T13:00:14;22.53;;;15.07;;
8139;SDS011;4111;50.972;7.072;2022-12-19T13:02:46;23.03;;;15.27;;
8139;SDS011;4111;50.972;7.072;2022-12-19T13:05:24;37.63;;;17.40;;
8139;SDS011;4111;50.972;7.072;2022-12-19T13:07:54;29.00;;;16.87;;
8139;SDS011;4111;50.972;7.072;2022-12-19T13:10:22;43.17;;;20.77;;
8139;SDS011;4111;50.972;7.072;2022-12-19T13:13:01;28.17;;;15.10;;
8139;SDS011;4111;50.972;7.072;2022-12-19T13:15:43;32.53;;;16.33;;
8139;SDS011;4111;50.972;7.072;2022-12-19T13:18:27;28.93;;;16.67;;
8139;SDS011;4111;50.972;7.072;2022-12-19T13:20:58;24.47;;;15.43;;
8139;SDS011;4111;50.972;7.072;2022-12-19T13:25:55;19.30;;;14.03;;
8139;SDS011;4111;50.972;7.072;2022-12-19T13:39:35;17.10;;;13.27;;
8139;SDS011;4111;50.972;7.072;2022-12-19T13:42:26;17.53;;;13.93;;
8139;SDS011;4111;50.972;7.072;2022-12-19T13:45:12;18.93;;;14.13;;
8139;SDS011;4111;50.972;7.072;2022-12-19T13:47:48;18.83;;;13.20;;
8139;SDS011;4111;50.972;7.072;2022-12-19T13:52:54;21.67;;;14.87;;
8139;SDS011;4111;50.972;7.072;2022-12-19T13:55:21;25.50;;;14.53;;
8139;SDS011;4111;50.972;7.072;2022-12-19T13:57:50;27.20;;;15.77;;
8139;SDS011;4111;50.972;7.072;2022-12-19T14:00:19;19.07;;;12.67;;
8139;SDS011;4111;50.972;7.072;2022-12-19T14:02:57;20.37;;;12.73;;
8139;SDS011;4111;50.972;7.072;2022-12-19T14:05:26;16.53;;;12.13;;
8139;SDS011;4111;50.972;7.072;2022-12-19T14:08:20;17.90;;;11.03;;
8139;SDS011;4111;50.972;7.072;2022-12-19T14:10:49;13.50;;;10.57;;
8139;SDS011;4111;50.972;7.072;2022-12-19T14:13:41;12.83;;;10.20;;
8139;SDS011;4111;50.972;7.072;2022-12-19T14:16:41;14.67;;;10.10;;
8139;SDS011;4111;50.972;7.072;2022-12-19T14:21:44;14.10;;;9.37;;
8139;SDS011;4111;50.972;7.072;2022-12-19T14:24:31;12.03;;;9.17;;
8139;SDS011;4111;50.972;7.072;2022-12-19T14:27:06;12.50;;;9.73;;
8139;SDS011;4111;50.972;7.072;2022-12-19T14:29:59;13.67;;;9.23;;
8139;SDS011;4111;50.972;7.072;2022-12-19T14:32:48;11.90;;;8.23;;
8139;SDS011;4111;50.972;7.072;2022-12-19T14:35:38;10.67;;;8.43;;
8139;SDS011;4111;50.972;7.072;2022-12-19T14:38:30;13.93;;;9.30;;
8139;SDS011;4111;50.972;7.072;2022-12-19T14:41:40;9.77;;;7.83;;
8139;SDS011;4111;50.972;7.072;2022-12-19T14:44:46;12.17;;;9.10;;
8139;SDS011;4111;50.972;7.072;2022-12-19T14:47:36;12.87;;;8.23;;
8139;SDS011;4111;50.972;7.072;2022-12-19T14:50:34;11.90;;;7.90;;
8139;SDS011;4111;50.972;7.072;2022-12-19T14:53:22;10.17;;;8.37;;
8139;SDS011;4111;50.972;7.072;2022-12-19T14:56:13;11.30;;;8.53;;
8139;SDS011;4111;50.972;7.072;2022-12-19T14:59:01;11.93;;;8.27;;
8139;SDS011;4111;50.972;7.072;2022-12-19T15:01:29;11.33;;;8.23;;
8139;SDS011;4111;50.972;7.072;2022-12-19T15:03:59;9.90;;;8.17;;
8139;SDS011;4111;50.972;7.072;2022-12-19T15:06:55;11.27;;;7.93;;
8139;SDS011;4111;50.972;7.072;2022-12-19T15:15:58;10.67;;;7.33;;
8139;SDS011;4111;50.972;7.072;2022-12-19T15:18:39;11.83;;;7.63;;
8139;SDS011;4111;50.972;7.072;2022-12-19T15:21:09;10.47;;;7.20;;
8139;SDS011;4111;50.972;7.072;2022-12-19T15:23:39;8.80;;;6.87;;
8139;SDS011;4111;50.972;7.072;2022-12-19T15:26:13;8.70;;;7.03;;
8139;SDS011;4111;50.972;7.072;2022-12-19T15:28:45;8.57;;;6.57;;
8139;SDS011;4111;50.972;7.072;2022-12-19T15:31:22;10.20;;;6.43;;
8139;SDS011;4111;50.972;7.072;2022-12-19T15:33:55;8.83;;;6.77;;
8139;SDS011;4111;50.972;7.072;2022-12-19T15:36:41;10.33;;;7.10;;
8139;SDS011;4111;50.972;7.072;2022-12-19T15:39:08;9.87;;;7.30;;
8139;SDS011;4111;50.972;7.072;2022-12-19T15:41:34;9.77;;;6.63;;
8139;SDS011;4111;50.972;7.072;2022-12-19T15:44:14;8.13;;;6.63;;
8139;SDS011;4111;50.972;7.072;2022-12-19T15:46:42;8.43;;;7.03;;
8139;SDS011;4111;50.972;7.072;2022-12-19T15:49:18;8.27;;;6.70;;
8139;SDS011;4111;50.972;7.072;2022-12-19T15:51:46;9.50;;;7.37;;
8139;SDS011;4111;50.972;7.072;2022-12-19T15:54:13;9.03;;;7.27;;
8139;SDS011;4111;50.972;7.072;2022-12-19T15:57:00;9.30;;;6.87;;
8139;SDS011;4111;50.972;7.072;2022-12-19T15:59:34;9.83;;;6.87;;
8139;SDS011;4111;50.972;7.072;2022-12-19T16:02:17;9.53;;;6.90;;
8139;SDS011;4111;50.972;7.072;2022-12-19T16:04:48;9.67;;;7.03;;
8139;SDS011;4111;50.972;7.072;2022-12-19T16:07:16;8.70;;;7.10;;
8139;SDS011;4111;50.972;7.072;2022-12-19T16:09:47;9.33;;;7.03;;
8139;SDS011;4111;50.972;7.072;2022-12-19T16:12:15;7.53;;;6.47;;
8139;SDS011;4111;50.972;7.072;2022-12-19T16:14:45;11.97;;;7.37;;
8139;SDS011;4111;50.972;7.072;2022-12-19T16:17:18;8.53;;;6.73;;
8139;SDS011;4111;50.972;7.072;2022-12-19T16:19:47;11.63;;;7.27;;
8139;SDS011;4111;50.972;7.072;2022-12-19T16:22:15;10.17;;;6.73;;
8139;SDS011;4111;50.972;7.072;2022-12-19T16:24:47;8.43;;;6.90;;
8139;SDS011;4111;50.972;7.072;2022-12-19T16:27:23;7.97;;;6.07;;
8139;SDS011;4111;50.972;7.072;2022-12-19T16:29:52;9.07;;;7.10;;
8139;SDS011;4111;50.972;7.072;2022-12-19T16:32:20;8.53;;;6.97;;
8139;SDS011;4111;50.972;7.072;2022-12-19T16:34:51;10.57;;;7.37;;
8139;SDS011;4111;50.972;7.072;2022-12-19T16:37:18;9.87;;;8.07;;
8139;SDS011;4111;50.972;7.072;2022-12-19T16:39:44;12.40;;;7.90;;
8139;SDS011;4111;50.972;7.072;2022-12-19T16:42:14;13.67;;;9.27;;
8139;SDS011;4111;50.972;7.072;2022-12-19T16:44:45;12.47;;;8.60;;
8139;SDS011;4111;50.972;7.072;2022-12-19T16:47:14;11.83;;;8.97;;
8139;SDS011;4111;50.972;7.072;2022-12-19T16:49:42;12.33;;;9.03;;
8139;SDS011;4111;50.972;7.072;2022-12-19T16:52:10;11.13;;;8.43;;
8139;SDS011;4111;50.972;7.072;2022-12-19T16:54:37;8.73;;;7.50;;
8139;SDS011;4111;50.972;7.072;2022-12-19T16:57:03;12.53;;;11.23;;
8139;SDS011;4111;50.972;7.072;2022-12-19T16:59:41;12.70;;;8.63;;
8139;SDS011;4111;50.972;7.072;2022-12-19T17:02:15;13.83;;;9.10;;
8139;SDS011;4111;50.972;7.072;2022-12-19T17:05:01;7.77;;;6.10;;
8139;SDS011;4111;50.972;7.072;2022-12-19T17:07:29;9.63;;;7.37;;
8139;SDS011;4111;50.972;7.072;2022-12-19T17:09:56;8.43;;;6.43;;
8139;SDS011;4111;50.972;7.072;2022-12-19T17:12:23;7.60;;;6.70;;
8139;SDS011;4111;50.972;7.072;2022-12-19T17:14:52;11.03;;;7.27;;
8139;SDS011;4111;50.972;7.072;2022-12-19T17:17:19;8.70;;;7.37;;
8139;SDS011;4111;50.972;7.072;2022-12-19T17:19:50;8.73;;;6.97;;
8139;SDS011;4111;50.972;7.072;2022-12-19T17:22:17;8.67;;;6.87;;
8139;SDS011;4111;50.972;7.072;2022-12-19T17:24:44;11.87;;;6.90;;
8139;SDS011;4111;50.972;7.072;2022-12-19T17:27:12;6.47;;;5.47;;
8139;SDS011;4111;50.972;7.072;2022-12-19T17:29:39;8.97;;;7.10;;
8139;SDS011;4111;50.972;7.072;2022-12-19T17:32:05;9.33;;;7.20;;
8139;SDS011;4111;50.972;7.072;2022-12-19T17:34:34;8.07;;;6.57;;
8139;SDS011;4111;50.972;7.072;2022-12-19T17:37:02;7.73;;;6.67;;
8139;SDS011;4111;50.972;7.072;2022-12-19T17:39:30;8.53;;;6.67;;
8139;SDS011;4111;50.972;7.072;2022-12-19T17:42:09;7.60;;;6.70;;